Time;durP1;ratioP1;P1;durP2;ratioP2;P2;SDS_P1;SDS_P2;PMS_P1;PMS_P2;Temp;Humidity;BMP_temperature;BMP_pressure;BME280_temperature;BME280_humidity;BME280_pressure;Samples;Min_cycle;Max_cycle;Signal;HPM_P1;HPM_P2
2021/01/07 00:02:02;;;;;;;2.28;1.67;;;;;;;18.88;46.77;101517.81;5054326;28;20060;-77
2021/01/07 00:04:27;;;;;;;2.40;1.33;;;;;;;18.89;46.34;101516.09;5036509;28;20127;-77
2021/01/07 00:06:53;;;;;;;3.40;1.67;;;;;;;18.83;46.51;101511.69;5055089;28;20064;-77
2021/01/07 00:09:18;;;;;;;3.10;2.10;;;;;;;18.87;46.28;101513.47;5036473;28;20025;-77
2021/01/07 00:11:43;;;;;;;4.03;2.10;;;;;;;18.87;46.25;101512.56;5052718;28;20028;-77
2021/01/07 00:14:09;;;;;;;3.17;1.30;;;;;;;18.85;46.35;101504.72;5036004;28;20427;-77
2021/01/07 00:16:36;;;;;;;2.25;1.48;;;;;;;18.81;46.32;101500.34;5038758;28;20029;-77
2021/01/07 00:19:02;;;;;;;2.45;1.33;;;;;;;18.82;46.27;101504.72;5056430;28;20387;-77
2021/01/07 00:21:28;;;;;;;3.05;1.73;;;;;;;18.81;46.35;101497.72;5054558;28;20032;-77
2021/01/07 00:23:53;;;;;;;2.40;1.70;;;;;;;18.81;46.44;101499.47;5051849;28;20029;-77
2021/01/07 00:26:19;;;;;;;2.80;2.22;;;;;;;18.77;46.27;101493.34;5053557;28;20116;-77
2021/01/07 00:28:44;;;;;;;2.28;1.60;;;;;;;18.80;46.23;101493.34;5036908;28;20036;-76
2021/01/07 00:31:09;;;;;;;2.13;1.40;;;;;;;18.79;46.37;101494.22;5054360;28;20037;-77
2021/01/07 00:33:35;;;;;;;2.80;1.60;;;;;;;18.79;46.52;101496.84;5036544;28;20056;-77
2021/01/07 00:36:00;;;;;;;2.53;1.33;;;;;;;18.78;46.22;101497.69;5036646;28;20036;-77
2021/01/07 00:38:25;;;;;;;2.08;1.40;;;;;;;18.74;46.33;101489.81;5052574;28;20128;-77
2021/01/07 00:40:51;;;;;;;2.70;1.63;;;;;;;18.77;46.43;101498.56;5054002;28;20056;-77
2021/01/07 00:43:16;;;;;;;3.78;1.40;;;;;;;18.73;46.27;101491.56;5052566;28;20368;-77
2021/01/07 00:45:41;;;;;;;2.53;1.30;;;;;;;18.74;46.32;101493.31;5036181;28;20031;-77
2021/01/07 00:48:07;;;;;;;2.25;1.40;;;;;;;18.75;46.19;101488.94;5053318;28;20076;-77
2021/01/07 00:50:33;;;;;;;2.08;1.30;;;;;;;18.73;46.24;101486.31;5053400;28;20048;-77
2021/01/07 00:52:58;;;;;;;2.15;1.20;;;;;;;18.70;46.48;101488.91;5035904;28;20497;-76
2021/01/07 00:55:24;;;;;;;2.60;1.30;;;;;;;18.71;46.21;101479.31;5053878;28;20040;-77
2021/01/07 00:57:49;;;;;;;2.25;1.55;;;;;;;18.69;46.41;101481.94;5053768;28;20032;-77
2021/01/07 01:00:18;;;;;;;2.72;1.27;;;;;;;18.69;46.49;101481.94;5051417;28;20057;-77
2021/01/07 01:02:44;;;;;;;2.33;1.15;;;;;;;18.69;46.40;101475.84;5050375;28;20025;-76
2021/01/07 01:05:10;;;;;;;2.58;1.63;;;;;;;18.69;46.22;101481.06;5052158;28;20058;-76
2021/01/07 01:07:35;;;;;;;1.83;1.15;;;;;;;18.65;46.25;101474.94;5052130;28;20040;-77
2021/01/07 01:10:01;;;;;;;5.07;1.75;;;;;;;18.68;46.25;101481.94;5035635;28;20093;-77
2021/01/07 01:12:27;;;;;;;1.85;1.20;;;;;;;18.66;46.16;101467.97;5055036;28;20467;-77
2021/01/07 01:14:52;;;;;;;3.83;1.30;;;;;;;18.64;46.30;101467.94;5035610;28;20035;-77
2021/01/07 01:17:18;;;;;;;2.10;1.30;;;;;;;18.65;46.33;101469.69;5053904;28;20033;-77
2021/01/07 01:19:43;;;;;;;1.95;1.52;;;;;;;18.65;46.25;101471.44;5035745;28;20096;-77
2021/01/07 01:22:10;;;;;;;4.15;1.45;;;;;;;18.62;46.49;101464.44;5049930;28;20033;-76
2021/01/07 01:24:35;;;;;;;1.98;1.35;;;;;;;18.65;46.22;101471.44;5032135;28;20037;-77
2021/01/07 01:27:02;;;;;;;1.83;1.27;;;;;;;18.63;46.57;101466.19;5052029;28;20029;-77
2021/01/07 01:29:27;;;;;;;2.05;1.00;;;;;;;18.64;46.47;101465.31;5053264;28;20063;-77
2021/01/07 01:31:54;;;;;;;2.72;1.25;;;;;;;18.64;46.37;101467.06;5053463;28;20052;-77
2021/01/07 01:34:23;;;;;;;2.50;1.30;;;;;;;18.61;46.48;101459.19;5052930;28;20087;-77
2021/01/07 01:36:48;;;;;;;2.05;1.40;;;;;;;18.63;46.38;101462.69;5047604;28;20033;-77
2021/01/07 01:39:15;;;;;;;4.70;1.55;;;;;;;18.63;46.23;101465.31;5053166;28;20021;-77
2021/01/07 01:41:48;;;;;;;1.73;1.10;;;;;;;18.60;46.35;101462.69;5052678;28;20483;-77
2021/01/07 01:44:15;;;;;;;1.92;1.00;;;;;;;18.58;46.24;101454.81;5054875;28;20060;-77
2021/01/07 01:46:41;;;;;;;2.00;1.15;;;;;;;18.59;46.28;101460.91;5055320;28;20029;-77
2021/01/07 01:49:09;;;;;;;2.20;1.50;;;;;;;18.54;46.54;101453.91;5027415;28;20084;-77
2021/01/07 01:51:36;;;;;;;1.77;1.48;;;;;;;18.59;46.41;101461.81;5052867;28;20028;-76
2021/01/07 01:54:01;;;;;;;1.63;1.20;;;;;;;18.59;46.26;101460.91;5034701;28;20033;-76
2021/01/07 01:56:27;;;;;;;3.92;1.17;;;;;;;18.59;46.40;101461.81;5052790;28;20094;-77
2021/01/07 01:58:54;;;;;;;2.47;1.30;;;;;;;18.57;46.60;101456.50;5051309;28;20141;-77
2021/01/07 02:01:20;;;;;;;2.20;1.42;;;;;;;18.55;46.33;101454.78;5053134;28;20032;-76
2021/01/07 02:03:47;;;;;;;2.10;1.30;;;;;;;18.57;46.12;101453.03;5051228;28;20041;-77
2021/01/07 02:06:15;;;;;;;2.70;1.05;;;;;;;18.57;46.48;101451.28;5051347;28;20033;-77
2021/01/07 02:08:45;;;;;;;1.40;0.98;;;;;;;18.54;46.30;101450.41;5051674;28;20033;-77
2021/01/07 02:11:12;;;;;;;1.10;1.00;;;;;;;18.55;46.14;101452.16;5051414;28;20017;-77
2021/01/07 02:13:38;;;;;;;3.00;1.00;;;;;;;18.54;46.61;101446.06;5049223;28;20032;-76
2021/01/07 02:16:04;;;;;;;2.10;0.82;;;;;;;18.51;46.24;101442.53;5039679;28;20032;-75
2021/01/07 02:18:30;;;;;;;2.22;1.00;;;;;;;18.52;46.38;101450.41;5058642;28;20025;-76
2021/01/07 02:21:00;;;;;;;2.22;1.35;;;;;;;18.53;46.25;101446.91;5053620;28;20382;-76
2021/01/07 02:23:26;;;;;;;1.73;1.25;;;;;;;18.52;46.35;101444.28;5054563;28;20033;-76
2021/01/07 02:25:51;;;;;;;3.13;1.23;;;;;;;18.51;46.33;101447.78;5044176;28;20040;-77
2021/01/07 02:28:17;;;;;;;2.00;1.20;;;;;;;18.51;46.31;101446.03;5053205;28;20052;-77
2021/01/07 02:30:43;;;;;;;1.42;0.90;;;;;;;18.52;46.24;101446.91;5050979;28;20043;-76
2021/01/07 02:33:08;;;;;;;1.95;1.02;;;;;;;18.51;46.17;101443.41;5053303;28;21986;-77
2021/01/07 02:35:34;;;;;;;1.15;0.80;;;;;;;18.47;46.42;101440.75;5056584;28;20526;-77
2021/01/07 02:37:59;;;;;;;2.20;0.95;;;;;;;18.49;46.24;101439.03;5038182;28;20033;-77
2021/01/07 02:40:24;;;;;;;1.50;1.00;;;;;;;18.47;46.35;101435.53;5040172;28;20068;-77
2021/01/07 02:42:50;;;;;;;2.85;1.15;;;;;;;18.46;46.49;101434.66;5051446;28;20037;-77
2021/01/07 02:45:15;;;;;;;1.45;0.90;;;;;;;18.45;46.50;101429.41;5053995;28;20107;-77
2021/01/07 02:47:41;;;;;;;1.63;0.95;;;;;;;18.48;46.25;101426.78;5056096;28;20375;-76
2021/01/07 02:50:07;;;;;;;1.45;1.00;;;;;;;18.47;46.31;101430.28;5042846;28;20041;-77
2021/01/07 02:52:33;;;;;;;1.13;0.90;;;;;;;18.47;46.54;101430.28;5054048;28;20032;-77
2021/01/07 02:54:59;;;;;;;1.30;0.88;;;;;;;18.45;46.22;101425.03;5056136;28;20108;-76
2021/01/07 02:57:24;;;;;;;1.27;0.68;;;;;;;18.42;46.33;101417.19;5054198;28;20029;-77
2021/01/07 02:59:49;;;;;;;3.10;1.08;;;;;;;18.44;46.33;101423.28;5054450;28;20033;-77
2021/01/07 03:02:15;;;;;;;2.42;1.10;;;;;;;18.41;46.43;101412.81;5052872;28;20041;-77
2021/01/07 03:04:40;;;;;;;1.80;1.00;;;;;;;18.42;46.23;101411.06;5068520;28;20139;-76
2021/01/07 03:07:07;;;;;;;1.25;1.00;;;;;;;18.43;46.37;101408.47;5023315;28;20051;-76
2021/01/07 03:09:32;;;;;;;1.25;0.90;;;;;;;18.43;46.36;101403.22;5061831;28;20111;-76
2021/01/07 03:12:17;;;;;;;1.35;0.77;;;;;;;18.40;46.38;101408.44;5047062;28;20453;-77
2021/01/07 03:14:44;;;;;;;1.75;1.10;;;;;;;18.41;46.26;101401.47;5061689;28;20025;-76
2021/01/07 03:17:09;;;;;;;1.83;1.33;;;;;;;18.42;46.28;101406.72;5065889;28;20086;-76
2021/01/07 03:19:35;;;;;;;1.40;1.00;;;;;;;18.41;46.37;101404.09;5059055;28;20037;-77
2021/01/07 03:22:02;;;;;;;0.70;0.70;;;;;;;18.40;46.30;101402.34;5065932;28;20029;-76
2021/01/07 03:24:28;;;;;;;1.23;0.73;;;;;;;18.39;46.44;101390.09;5065684;28;20116;-76
2021/01/07 03:26:54;;;;;;;1.33;0.75;;;;;;;18.36;46.42;101390.97;5038140;28;20116;-76
2021/01/07 03:29:19;;;;;;;1.42;0.80;;;;;;;18.36;46.31;101387.47;5055222;28;20511;-77
2021/01/07 03:31:44;;;;;;;1.13;0.80;;;;;;;18.37;46.63;101387.47;5037483;28;20047;-77
2021/01/07 03:34:10;;;;;;;0.90;0.70;;;;;;;18.37;46.37;101387.47;5021980;28;20029;-77
2021/01/07 03:36:35;;;;;;;0.98;0.60;;;;;;;18.38;46.53;101390.97;5037085;28;20025;-76
2021/01/07 03:39:01;;;;;;;1.90;0.80;;;;;;;18.33;46.44;101380.47;5062729;28;20036;-77
2021/01/07 03:41:26;;;;;;;1.55;0.65;;;;;;;18.33;46.55;101387.44;5062204;28;20097;-76
2021/01/07 03:43:51;;;;;;;0.90;0.57;;;;;;;18.36;46.55;101382.22;5055156;28;20428;-76
2021/01/07 03:46:17;;;;;;;0.65;0.50;;;;;;;18.35;46.61;101383.09;5064249;28;20448;-77
2021/01/07 03:48:42;;;;;;;1.60;1.02;;;;;;;18.34;46.56;101383.97;5055462;28;20029;-76
2021/01/07 03:51:07;;;;;;;1.88;0.70;;;;;;;18.33;46.49;101385.72;5055003;28;20025;-77
2021/01/07 03:53:33;;;;;;;1.10;0.80;;;;;;;18.33;46.48;101390.06;5028832;28;20025;-76
2021/01/07 03:55:58;;;;;;;0.70;0.60;;;;;;;18.31;46.35;101386.56;5050393;28;20112;-76
2021/01/07 03:58:23;;;;;;;2.90;1.02;;;;;;;18.32;46.57;101383.06;5048656;28;20087;-76
2021/01/07 04:00:49;;;;;;;2.33;0.85;;;;;;;18.33;46.53;101387.44;5064020;28;20506;-76
2021/01/07 04:03:14;;;;;;;1.25;0.70;;;;;;;18.31;46.52;101386.56;5035308;28;20039;-76
2021/01/07 04:05:40;;;;;;;1.67;0.90;;;;;;;18.32;46.62;101381.34;5022704;28;20439;-76
2021/01/07 04:08:05;;;;;;;1.05;0.70;;;;;;;18.32;46.50;101385.69;5025848;28;20150;-76
2021/01/07 04:10:30;;;;;;;1.23;0.65;;;;;;;18.30;46.48;101384.84;5016222;28;20060;-77
2021/01/07 04:12:56;;;;;;;0.63;0.60;;;;;;;18.30;46.56;101384.84;5038729;28;20025;-76
2021/01/07 04:15:21;;;;;;;1.90;0.60;;;;;;;18.27;46.56;101383.06;5030292;28;20045;-76
2021/01/07 04:17:46;;;;;;;0.85;0.65;;;;;;;18.29;46.76;101375.22;5009612;28;20452;-76
2021/01/07 04:20:12;;;;;;;1.20;0.60;;;;;;;18.29;46.38;101372.63;5033327;28;20100;-76
2021/01/07 04:22:41;;;;;;;1.15;0.70;;;;;;;18.26;46.48;101373.47;5018885;28;20021;-76
2021/01/07 04:25:08;;;;;;;1.10;0.73;;;;;;;18.25;46.75;101376.06;5039132;28;20076;-77
2021/01/07 04:27:33;;;;;;;0.70;0.57;;;;;;;18.28;46.39;101374.34;5031350;28;20029;-77
2021/01/07 04:29:58;;;;;;;1.02;0.77;;;;;;;18.25;46.31;101369.09;5021037;28;20030;-76
2021/01/07 04:32:24;;;;;;;1.10;0.63;;;;;;;18.29;46.24;101376.09;5001550;28;20044;-76
2021/01/07 04:34:49;;;;;;;1.10;0.70;;;;;;;18.38;46.00;101370.03;4997759;28;20468;-77
2021/01/07 04:37:14;;;;;;;1.30;0.80;;;;;;;18.46;46.14;101365.69;5035145;28;20037;-77
2021/01/07 04:39:40;;;;;;;1.05;0.75;;;;;;;18.48;46.04;101369.19;4993853;28;20059;-76
2021/01/07 04:42:05;;;;;;;1.50;1.10;;;;;;;18.46;46.23;101371.78;5024824;28;20022;-77
2021/01/07 04:44:31;;;;;;;1.00;0.70;;;;;;;18.53;45.84;101368.34;5005390;28;20029;-77
2021/01/07 04:46:59;;;;;;;1.05;0.68;;;;;;;18.56;46.04;101367.47;5034341;28;20104;-77
2021/01/07 04:49:25;;;;;;;1.02;0.70;;;;;;;18.56;46.08;101372.72;5022372;28;20030;-77
2021/01/07 04:51:51;;;;;;;0.75;0.60;;;;;;;18.59;46.04;101364.00;5034053;28;20040;-77
2021/01/07 04:54:17;;;;;;;0.98;0.63;;;;;;;18.63;45.78;101368.41;5033795;28;20380;-77
2021/01/07 04:56:43;;;;;;;0.88;0.65;;;;;;;18.62;46.02;101359.66;5015471;28;20033;-77
2021/01/07 04:59:08;;;;;;;1.50;0.80;;;;;;;18.62;46.07;101359.66;5005980;28;20434;-77
2021/01/07 05:01:34;;;;;;;0.95;0.60;;;;;;;18.64;45.94;101357.94;5022045;28;20045;-77
2021/01/07 05:04:00;;;;;;;0.70;0.70;;;;;;;18.64;45.89;101343.94;5028059;28;20052;-77
2021/01/07 05:06:25;;;;;;;2.33;0.90;;;;;;;18.69;45.87;101356.19;5052504;28;20028;-76
2021/01/07 05:09:01;;;;;;;0.93;0.65;;;;;;;18.69;46.02;101356.19;5053565;28;20037;-77
2021/01/07 05:11:28;;;;;;;1.13;0.85;;;;;;;18.71;45.91;101353.56;5053765;28;20025;-76
2021/01/07 05:14:03;;;;;;;1.20;0.73;;;;;;;18.75;45.72;101352.69;5060151;28;20031;-75
2021/01/07 05:16:30;;;;;;;1.10;0.70;;;;;;;18.73;45.81;101357.94;5040082;28;20017;-77
2021/01/07 05:18:55;;;;;;;1.38;0.60;;;;;;;18.71;45.93;101350.94;5053811;28;20028;-77
2021/01/07 05:21:21;;;;;;;1.08;0.70;;;;;;;18.76;45.72;101360.56;5035992;28;20024;-77
2021/01/07 05:23:53;;;;;;;0.57;0.43;;;;;;;18.78;45.92;101356.22;5053647;28;20124;-77
2021/01/07 05:26:21;;;;;;;0.82;0.50;;;;;;;18.76;45.77;101350.09;5053451;28;20475;-77
2021/01/07 05:28:48;;;;;;;1.02;0.60;;;;;;;18.77;45.91;101345.72;5053535;28;20029;-77
2021/01/07 05:31:19;;;;;;;0.68;0.50;;;;;;;18.76;45.97;101344.84;5054442;28;20082;-77
2021/01/07 05:33:44;;;;;;;1.58;0.85;;;;;;;18.79;45.94;101344.00;5053537;28;20497;-77
2021/01/07 05:36:20;;;;;;;0.60;0.52;;;;;;;18.80;45.70;101341.38;5051910;28;20043;-77
2021/01/07 05:38:46;;;;;;;0.77;0.50;;;;;;;18.84;45.74;101337.00;5052091;28;20108;-69
2021/01/07 05:41:13;;;;;;;1.63;0.70;;;;;;;18.84;45.72;101332.63;5048376;28;20124;-75
2021/01/07 05:43:39;;;;;;;0.90;0.55;;;;;;;18.87;45.77;101332.63;5050739;28;20016;-67
2021/01/07 05:46:06;;;;;;;2.45;0.70;;;;;;;18.96;46.03;101330.88;5050754;28;20032;-70
2021/01/07 05:48:32;;;;;;;1.83;0.80;;;;;;;19.02;46.01;101346.63;5049977;28;20475;-66
2021/01/07 05:51:03;;;;;;;1.00;0.85;;;;;;;18.96;45.92;101342.25;5050300;28;20025;-67
2021/01/07 05:53:29;;;;;;;1.17;0.60;;;;;;;18.97;45.93;101350.97;5052476;28;20028;-67
2021/01/07 05:55:55;;;;;;;1.58;0.80;;;;;;;19.00;45.76;101344.00;5050622;28;20154;-68
2021/01/07 05:58:22;;;;;;;0.98;0.60;;;;;;;19.00;45.85;101345.75;5051465;28;22180;-67
2021/01/07 06:00:49;;;;;;;1.40;0.60;;;;;;;19.00;45.98;101346.63;5048311;28;20025;-67
2021/01/07 06:03:18;;;;;;;1.45;0.88;;;;;;;19.08;45.80;101349.28;5048170;28;20033;-67
2021/01/07 06:05:44;;;;;;;2.83;0.77;;;;;;;19.11;45.81;101352.75;5032483;28;20051;-67
2021/01/07 06:08:15;;;;;;;2.17;1.15;;;;;;;19.11;45.97;101352.75;5033247;28;20390;-67
2021/01/07 06:10:41;;;;;;;3.05;0.77;;;;;;;19.09;45.82;101344.00;5034147;28;20095;-67
2021/01/07 06:13:06;;;;;;;1.40;0.88;;;;;;;19.04;45.85;101345.75;5034069;28;20041;-67
2021/01/07 06:15:32;;;;;;;1.20;0.73;;;;;;;19.00;46.02;101344.00;5033368;28;20111;-71
2021/01/07 06:17:58;;;;;;;2.85;0.90;;;;;;;19.04;46.02;101343.16;5039672;28;20045;-69
2021/01/07 06:20:23;;;;;;;1.45;0.80;;;;;;;19.02;46.01;101341.38;5011182;28;20530;-78
2021/01/07 06:22:50;;;;;;;2.95;0.90;;;;;;;19.01;46.18;101344.88;5037261;28;20033;-78
2021/01/07 06:25:18;;;;;;;1.83;1.00;;;;;;;19.04;46.24;101334.41;5037977;28;20049;-78
2021/01/07 06:27:44;;;;;;;1.83;0.90;;;;;;;19.03;46.03;101332.66;5019910;28;20397;-77
2021/01/07 06:30:10;;;;;;;12.05;1.75;;;;;;;19.02;46.34;101337.03;5019646;28;20041;-78
2021/01/07 06:32:35;;;;;;;2.78;1.35;;;;;;;19.08;46.28;101341.41;5020339;28;20029;-78
2021/01/07 06:35:01;;;;;;;1.80;0.95;;;;;;;19.06;46.30;101338.78;5019776;28;20036;-77
2021/01/07 06:37:33;;;;;;;3.45;1.17;;;;;;;19.03;46.29;101337.91;5037240;28;20108;-78
2021/01/07 06:40:00;;;;;;;2.38;0.85;;;;;;;19.01;46.29;101331.78;5019146;28;20026;-69
2021/01/07 06:42:28;;;;;;;3.20;1.13;;;;;;;19.05;46.04;101331.78;5035025;28;20080;-68
2021/01/07 06:44:56;;;;;;;6.63;0.82;;;;;;;19.05;46.22;101336.16;5018905;28;20397;-68
2021/01/07 06:47:21;;;;;;;2.10;0.77;;;;;;;19.01;46.39;101332.66;5033625;28;20087;-67
2021/01/07 06:49:48;;;;;;;4.05;0.80;;;;;;;19.11;46.23;101338.75;5034736;28;20025;-74
2021/01/07 06:52:14;;;;;;;3.53;1.15;;;;;;;19.10;46.15;101337.00;5036571;28;20032;-81
2021/01/07 06:54:45;;;;;;;3.45;1.67;;;;;;;19.07;46.86;101345.78;5036675;28;20030;-77
2021/01/07 06:57:12;;;;;;;7.25;1.80;;;;;;;19.07;46.82;101340.53;5026607;28;20052;-73
2021/01/07 06:59:55;;;;;;;5.18;1.23;;;;;;;19.14;46.38;101347.50;5018922;28;20033;-78
2021/01/07 07:02:20;;;;;;;28.33;2.13;;;;;;;19.12;46.63;101351.00;5035821;28;20025;-76
2021/01/07 07:04:47;;;;;;;3.35;1.50;;;;;;;19.10;47.04;101345.75;5027106;28;20372;-76
2021/01/07 07:07:15;;;;;;;5.13;1.55;;;;;;;19.11;46.57;101342.25;5056265;28;20039;-76
2021/01/07 07:09:42;;;;;;;2.03;1.05;;;;;;;19.07;46.75;101342.28;5056404;28;20110;-75
2021/01/07 07:12:07;;;;;;;1.67;1.02;;;;;;;19.06;46.60;101337.91;5061986;28;20029;-76
2021/01/07 07:14:33;;;;;;;4.22;1.40;;;;;;;19.09;46.51;101325.66;5050808;28;20041;-77
2021/01/07 07:17:06;;;;;;;2.83;1.30;;;;;;;19.10;46.74;101337.00;5052160;28;20025;-78
2021/01/07 07:19:35;;;;;;;3.17;1.02;;;;;;;19.08;46.73;101333.53;5054368;28;20553;-76
2021/01/07 07:22:02;;;;;;;2.05;0.98;;;;;;;19.12;46.53;101330.03;5030891;28;20041;-76
2021/01/07 07:24:38;;;;;;;3.47;1.05;;;;;;;19.09;46.39;101335.25;5068072;28;20025;-76
2021/01/07 07:27:07;;;;;;;1.92;0.80;;;;;;;19.10;46.59;101334.38;5058354;28;20025;-76
2021/01/07 07:29:35;;;;;;;2.25;0.75;;;;;;;19.11;46.67;101344.00;5057539;28;20025;-77
2021/01/07 07:32:00;;;;;;;2.17;0.68;;;;;;;19.09;46.43;101341.38;5058031;28;20459;-80
2021/01/07 07:34:32;;;;;;;5.22;1.30;;;;;;;19.15;46.06;101340.53;5057886;28;20104;-76
2021/01/07 07:37:00;;;;;;;1.27;0.63;;;;;;;19.16;46.39;101345.78;5034213;28;20047;-72
2021/01/07 07:39:27;;;;;;;2.47;0.85;;;;;;;19.14;46.52;101344.00;5048896;28;20117;-74
2021/01/07 07:42:09;;;;;;;1.60;0.82;;;;;;;19.11;46.74;101344.88;5061212;28;20051;-75
2021/01/07 07:44:34;;;;;;;2.00;0.77;;;;;;;19.11;46.49;101336.13;5054954;28;20406;-75
2021/01/07 07:47:00;;;;;;;1.20;0.70;;;;;;;19.14;46.39;101346.63;5055001;28;20108;-74
2021/01/07 07:49:26;;;;;;;1.83;1.00;;;;;;;19.14;46.45;101352.75;5056254;28;20021;-75
2021/01/07 07:51:51;;;;;;;2.45;0.80;;;;;;;19.12;46.52;101353.63;5068855;28;20482;-75
2021/01/07 07:54:17;;;;;;;2.38;0.60;;;;;;;19.13;46.55;101356.25;5055274;28;20036;-74
2021/01/07 07:56:42;;;;;;;1.48;0.75;;;;;;;19.13;46.38;101356.25;5055050;28;20535;-75
2021/01/07 07:59:09;;;;;;;1.55;0.85;;;;;;;19.10;46.41;101356.25;5022000;28;20036;-75
2021/01/07 08:01:46;;;;;;;1.35;0.73;;;;;;;19.16;46.65;101369.38;5035835;28;20060;-75
2021/01/07 08:04:17;;;;;;;1.17;0.50;;;;;;;19.16;46.37;101364.13;5050917;28;20491;-71
2021/01/07 08:06:43;;;;;;;1.58;0.70;;;;;;;19.19;46.46;101376.38;5045415;28;20076;-71
2021/01/07 08:09:12;;;;;;;4.05;0.65;;;;;;;19.24;46.26;101379.84;5051882;28;20017;-71
2021/01/07 08:11:44;;;;;;;2.63;0.90;;;;;;;19.25;46.25;101377.22;5052825;28;20090;-71
2021/01/07 08:14:12;;;;;;;0.63;0.50;;;;;;;19.23;46.11;101376.34;5050747;28;20017;-70
2021/01/07 08:16:38;;;;;;;4.25;0.70;;;;;;;19.21;46.27;101375.47;5053532;28;20040;-71
2021/01/07 08:19:22;;;;;;;4.93;0.80;;;;;;;19.31;46.05;101380.75;5041147;28;20033;-70
2021/01/07 08:21:51;;;;;;;;;;;;;;;19.34;46.03;101381.63;5053140;28;20082;-71
2021/01/07 08:24:19;;;;;;;3.53;0.80;;;;;;;19.24;46.21;101380.72;5047859;28;19929;-71
2021/01/07 08:26:56;;;;;;;2.58;0.68;;;;;;;19.23;46.30;101384.22;5044910;28;20498;-71
2021/01/07 08:29:25;;;;;;;1.85;0.73;;;;;;;19.25;46.07;101390.34;5053092;28;20029;-70
2021/01/07 08:31:52;;;;;;;4.28;1.42;;;;;;;19.21;46.21;101379.88;5034209;28;20483;-70
2021/01/07 08:34:19;;;;;;;1.17;0.60;;;;;;;19.20;46.15;101388.59;5050232;28;20463;-71
2021/01/07 08:36:45;;;;;;;1.98;0.60;;;;;;;19.20;46.16;101392.09;5053750;28;20029;-71
2021/01/07 08:39:13;;;;;;;1.77;0.68;;;;;;;19.16;46.08;101387.72;5036733;28;20464;-71
2021/01/07 08:41:42;;;;;;;1.75;0.80;;;;;;;19.16;46.26;101377.22;5034801;28;20033;-71
2021/01/07 08:44:08;;;;;;;0.75;0.47;;;;;;;19.19;46.09;101376.38;5039723;28;20475;-70
2021/01/07 08:46:39;;;;;;;1.52;0.70;;;;;;;19.21;46.10;101382.50;5035549;28;20107;-71
2021/01/07 08:49:10;;;;;;;1.95;1.15;;;;;;;19.17;45.97;101385.97;5048944;28;20024;-76
2021/01/07 08:51:46;;;;;;;2.97;0.57;;;;;;;19.22;46.01;101392.06;5052990;28;20048;-77
2021/01/07 08:54:16;;;;;;;1.73;0.80;;;;;;;19.17;45.80;101389.47;5049056;28;20116;-76
2021/01/07 08:56:47;;;;;;;0.88;0.50;;;;;;;19.15;45.95;101385.09;5058406;28;20033;-76
2021/01/07 08:59:20;;;;;;;1.38;0.80;;;;;;;19.21;45.88;101392.97;5049509;28;20029;-77
2021/01/07 09:01:51;;;;;;;1.33;0.80;;;;;;;19.16;45.86;101371.09;5044666;28;20025;-76
2021/01/07 09:04:40;;;;;;;2.17;1.05;;;;;;;19.15;46.09;101375.47;5043509;28;20037;-77
2021/01/07 09:07:09;;;;;;;1.73;0.63;;;;;;;19.21;45.94;101375.47;5011105;28;20032;-77
2021/01/07 09:09:38;;;;;;;1.67;0.68;;;;;;;19.20;45.70;101370.25;5028065;28;20400;-76
2021/01/07 09:12:11;;;;;;;1.23;0.50;;;;;;;19.19;45.72;101371.13;5019291;28;20033;-76
2021/01/07 09:14:43;;;;;;;1.30;0.67;;;;;;;19.20;45.98;101373.75;5032470;28;20402;-71
2021/01/07 09:17:08;;;;;;;1.98;0.98;;;;;;;19.21;46.03;101366.75;4993143;28;20335;-71
2021/01/07 09:19:34;;;;;;;1.10;0.60;;;;;;;19.23;45.58;101375.47;5002224;28;20071;-72
2021/01/07 09:22:01;;;;;;;0.87;0.53;;;;;;;19.19;45.67;101372.00;5025739;28;20040;-71
2021/01/07 09:24:31;;;;;;;0.90;0.50;;;;;;;19.21;45.56;101377.25;5033311;28;20037;-76
2021/01/07 09:27:05;;;;;;;2.20;1.10;;;;;;;19.24;45.76;101374.59;5033166;28;20037;-76
2021/01/07 09:29:30;;;;;;;0.38;0.38;;;;;;;19.23;45.45;101373.72;5041226;28;20108;-75
2021/01/07 09:31:55;;;;;;;1.13;0.65;;;;;;;19.19;45.65;101366.75;5019167;28;20120;-76
2021/01/07 09:34:21;;;;;;;1.23;0.60;;;;;;;19.25;45.73;101385.09;5035661;28;20021;-76
2021/01/07 09:36:46;;;;;;;1.20;0.50;;;;;;;19.23;45.69;101372.84;5006589;28;20038;-75
2021/01/07 09:39:11;;;;;;;0.63;0.40;;;;;;;19.24;45.45;101377.22;4982464;28;20179;-77
2021/01/07 09:41:37;;;;;;;1.10;0.50;;;;;;;19.24;45.47;101372.84;5010763;28;20036;-71
2021/01/07 09:44:02;;;;;;;1.58;0.60;;;;;;;19.23;45.67;101372.84;5014024;28;20479;-73
2021/01/07 09:46:27;;;;;;;1.42;0.60;;;;;;;19.26;45.50;101375.47;5002695;28;20490;-71
2021/01/07 09:48:53;;;;;;;0.68;0.50;;;;;;;19.22;45.55;101371.97;4999446;28;20034;-71
2021/01/07 09:51:18;;;;;;;1.38;0.88;;;;;;;19.19;45.60;101368.50;5002568;28;20034;-71
2021/01/07 09:53:43;;;;;;;0.82;0.43;;;;;;;19.17;45.67;101367.63;4997604;28;20026;-71
2021/01/07 09:56:09;;;;;;;1.13;0.73;;;;;;;19.08;45.61;101372.88;5007967;28;20025;-71
2021/01/07 09:58:34;;;;;;;0.40;0.30;;;;;;;19.12;45.71;101385.09;4992220;28;20124;-71
2021/01/07 10:00:59;;;;;;;0.80;0.50;;;;;;;19.06;45.58;101378.09;5028276;28;20021;-71
2021/01/07 10:03:25;;;;;;;1.98;0.40;;;;;;;19.02;45.97;101378.09;5027367;28;20049;-76
2021/01/07 10:05:50;;;;;;;0.77;0.50;;;;;;;19.04;46.02;101377.22;5010672;28;20024;-76
2021/01/07 10:08:15;;;;;;;1.00;0.60;;;;;;;19.03;46.00;101374.59;4998881;28;20113;-76
2021/01/07 10:10:41;;;;;;;0.80;0.52;;;;;;;18.97;46.10;101367.59;5036814;28;20036;-76
2021/01/07 10:13:07;;;;;;;0.85;0.55;;;;;;;18.99;45.96;101375.44;5001504;28;20033;-76
2021/01/07 10:15:32;;;;;;;0.63;0.60;;;;;;;18.96;45.92;101371.06;5019499;28;20483;-76
2021/01/07 10:17:57;;;;;;;1.00;0.60;;;;;;;18.95;45.96;101364.13;5011265;28;20476;-76
2021/01/07 10:20:23;;;;;;;1.50;0.95;;;;;;;18.91;46.03;101364.97;4997646;28;20029;-76
2021/01/07 10:22:51;;;;;;;0.80;0.45;;;;;;;18.93;46.09;101368.47;5008811;28;20113;-76
2021/01/07 10:25:18;;;;;;;2.70;0.70;;;;;;;18.89;46.06;101361.47;5033070;28;20033;-75
2021/01/07 10:27:43;;;;;;;2.13;0.68;;;;;;;18.89;46.01;101364.97;5019267;28;20026;-76
2021/01/07 10:30:09;;;;;;;1.00;0.60;;;;;;;18.88;45.95;101362.34;5019161;28;20499;-76
2021/01/07 10:32:36;;;;;;;1.20;0.63;;;;;;;18.87;45.98;101361.47;4999680;28;20546;-76
2021/01/07 10:35:03;;;;;;;1.40;0.88;;;;;;;18.82;46.07;101350.13;5038280;28;20490;-76
2021/01/07 10:37:32;;;;;;;1.08;0.73;;;;;;;18.85;46.11;101351.84;5000019;28;20037;-76
2021/01/07 10:40:02;;;;;;;1.23;0.68;;;;;;;18.86;45.75;101354.47;5039050;28;20033;-76
2021/01/07 10:42:27;;;;;;;0.85;0.50;;;;;;;18.96;46.10;101354.47;5021809;28;20372;-76
2021/01/07 10:44:53;;;;;;;3.63;0.60;;;;;;;19.01;45.81;101340.50;5032795;28;20056;-74
2021/01/07 10:47:18;;;;;;;2.65;0.45;;;;;;;19.10;45.65;101339.63;5014696;28;20060;-74
2021/01/07 10:49:46;;;;;;;2.63;0.80;;;;;;;19.11;45.68;101344.88;5018992;28;20087;-74
2021/01/07 10:52:34;;;;;;;1.15;0.70;;;;;;;19.11;45.64;101344.88;5030713;28;20025;-74
2021/01/07 10:55:24;;;;;;;3.72;0.98;;;;;;;19.13;45.61;101335.28;5033871;28;20369;-74
2021/01/07 10:58:27;;;;;;;1.38;0.70;;;;;;;19.20;45.39;101342.28;5010328;28;20029;-74
2021/01/07 11:01:18;;;;;;;2.00;0.85;;;;;;;19.18;45.42;101338.78;5033681;28;20039;-74
2021/01/07 11:03:56;;;;;;;2.20;0.82;;;;;;;19.24;45.31;101332.66;5023780;28;20041;-75
2021/01/07 11:06:29;;;;;;;1.08;0.60;;;;;;;19.23;45.41;101334.38;5062919;28;20025;-74
2021/01/07 11:08:54;;;;;;;0.85;0.45;;;;;;;19.23;45.62;101333.50;5055792;28;20022;-74
2021/01/07 11:11:25;;;;;;;2.92;1.08;;;;;;;19.27;45.41;101324.78;5049471;28;20029;-74
2021/01/07 11:14:17;;;;;;;1.25;0.63;;;;;;;19.28;45.28;101329.16;5052477;28;20107;-74
2021/01/07 11:16:47;;;;;;;0.65;0.40;;;;;;;19.26;45.36;101326.53;5034242;28;20041;-74
2021/01/07 11:19:22;;;;;;;2.08;1.23;;;;;;;19.35;45.34;101325.66;5062877;28;20037;-74
2021/01/07 11:22:15;;;;;;;1.15;0.60;;;;;;;19.35;45.24;101325.66;5046697;28;20029;-74
2021/01/07 11:24:42;;;;;;;0.80;0.50;;;;;;;19.32;45.19;101324.78;5045145;28;20487;-74
2021/01/07 11:27:10;;;;;;;1.08;0.75;;;;;;;19.35;45.15;101317.78;5046948;28;20479;-74